Time;durP1;ratioP1;P1;durP2;ratioP2;P2;SDS_P1;SDS_P2;PMS_P1;PMS_P2;Temp;Humidity;BMP_temperature;BMP_pressure;BME280_temperature;BME280_humidity;BME280_pressure;Samples;Min_cycle;Max_cycle;Signal;HPM_P1;HPM_P2
2022/01/04 00:01:17;;;;;;;;;;;7.80;99.90;;;;;;6200832;22;20324;-88
2022/01/04 00:03:45;;;;;;;;;;;8.30;99.90;;;;;;6200338;22;20028;-89
2022/01/04 00:06:11;;;;;;;;;;;7.90;99.90;;;;;;6225790;22;20275;-88
2022/01/04 00:08:36;;;;;;;;;;;7.60;99.90;;;;;;6225381;22;19986;-89
2022/01/04 00:11:15;;;;;;;;;;;7.80;99.90;;;;;;6225303;22;19990;-88
2022/01/04 00:13:41;;;;;;;;;;;8.20;99.90;;;;;;6203151;22;19915;-88
2022/01/04 00:16:07;;;;;;;;;;;7.60;99.90;;;;;;6225386;22;19946;-88
2022/01/04 00:18:33;;;;;;;;;;;8.50;99.90;;;;;;6226017;22;19923;-88
2022/01/04 00:20:59;;;;;;;;;;;7.10;99.90;;;;;;6200465;22;20061;-89
2022/01/04 00:23:25;;;;;;;;;;;8.20;99.90;;;;;;6225725;22;19915;-89
2022/01/04 00:25:50;;;;;;;;;;;7.80;99.90;;;;;;6200760;22;19986;-88
2022/01/04 00:28:16;;;;;;;;;;;7.70;99.90;;;;;;6225188;22;19920;-90
2022/01/04 00:30:41;;;;;;;;;;;7.80;99.90;;;;;;6200207;22;19965;-88
2022/01/04 00:33:08;;;;;;;;;;;8.60;99.90;;;;;;6200304;22;20232;-88
2022/01/04 00:35:33;;;;;;;;;;;8.10;99.90;;;;;;6225142;22;20336;-89
2022/01/04 00:37:59;;;;;;;;;;;8.70;99.90;;;;;;6200204;22;19922;-88
2022/01/04 00:40:25;;;;;;;;;;;8.30;99.90;;;;;;6225079;22;19922;-88
2022/01/04 00:42:50;;;;;;;;;;;8.00;99.90;;;;;;6200110;22;20244;-89
2022/01/04 00:45:17;;;;;;;;;;;8.20;99.90;;;;;;6200000;22;19945;-88
2022/01/04 00:49:09;;;;;;;;;;;7.80;99.90;;;;;;6224772;22;19954;-87
2022/01/04 00:50:32;;;;;;;;;;;8.70;99.90;;;;;;6229432;22;20328;-89
2022/01/04 00:52:57;;;;;;;;;;;7.80;99.90;;;;;;6199957;22;20001;-89
2022/01/04 00:55:23;;;;;;;;;;;8.20;99.90;;;;;;6199890;22;20326;-88
2022/01/04 00:57:48;;;;;;;;;;;8.40;99.90;;;;;;6199765;22;19922;-88
2022/01/04 01:00:14;;;;;;;;;;;7.70;99.90;;;;;;6200163;22;20372;-88
2022/01/04 01:02:40;;;;;;;;;;;7.80;99.90;;;;;;6224722;22;19915;-89
2022/01/04 01:05:05;;;;;;;;;;;8.30;99.90;;;;;;6224965;22;20213;-88
2022/01/04 01:07:31;;;;;;;;;;;7.70;99.90;;;;;;6224777;22;20247;-88
2022/01/04 01:10:13;;;;;;;;;;;7.70;99.90;;;;;;6199827;22;19915;-88
2022/01/04 01:12:38;;;;;;;;;;;7.70;99.90;;;;;;6203042;22;20001;-88
2022/01/04 01:15:06;;;;;;;;;;;8.60;99.90;;;;;;6199957;22;19950;-88
2022/01/04 01:17:32;;;;;;;;;;;7.70;99.90;;;;;;6225194;22;20341;-88
2022/01/04 01:19:58;;;;;;;;;;;7.60;99.90;;;;;;6224760;22;19968;-88
2022/01/04 01:22:23;;;;;;;;;;;8.80;99.90;;;;;;6224695;22;19922;-88
2022/01/04 01:24:49;;;;;;;;;;;8.20;99.90;;;;;;6199751;22;19915;-88
2022/01/04 01:27:14;;;;;;;;;;;7.60;99.90;;;;;;6199423;22;20248;-88
2022/01/04 01:29:40;;;;;;;;;;;8.10;99.90;;;;;;6224849;22;20338;-89
2022/01/04 01:32:06;;;;;;;;;;;8.20;99.90;;;;;;6224536;22;19965;-88
2022/01/04 01:34:31;;;;;;;;;;;7.50;99.90;;;;;;6199362;22;19926;-88
2022/01/04 01:36:57;;;;;;;;;;;7.50;99.90;;;;;;6249925;22;20006;-88
2022/01/04 01:39:22;;;;;;;;;;;7.40;99.90;;;;;;6199512;22;19952;-88
2022/01/04 01:41:48;;;;;;;;;;;7.50;99.90;;;;;;6249666;22;19926;-88
2022/01/04 01:44:16;;;;;;;;;;;7.40;99.90;;;;;;6225374;22;19919;-89
2022/01/04 01:46:43;;;;;;;;;;;7.70;99.90;;;;;;6224486;22;20192;-88
2022/01/04 01:49:09;;;;;;;;;;;7.30;99.90;;;;;;6224894;22;20354;-88
2022/01/04 01:51:37;;;;;;;;;;;7.40;99.90;;;;;;6249714;22;19916;-88
2022/01/04 01:54:05;;;;;;;;;;;7.10;99.90;;;;;;6224876;22;19927;-88
2022/01/04 01:56:30;;;;;;;;;;;8.70;99.90;;;;;;6224767;22;19915;-88
2022/01/04 01:58:56;;;;;;;;;;;7.90;99.90;;;;;;6224853;22;19937;-88
2022/01/04 02:01:24;;;;;;;;;;;8.00;99.90;;;;;;6224553;22;19915;-88
2022/01/04 02:03:50;;;;;;;;;;;7.70;99.90;;;;;;6224971;22;20284;-89
2022/01/04 02:06:18;;;;;;;;;;;7.40;99.90;;;;;;6199270;22;19915;-89
2022/01/04 02:08:44;;;;;;;;;;;7.30;99.90;;;;;;6224981;22;19923;-89
2022/01/04 02:11:10;;;;;;;;;;;7.60;99.90;;;;;;6224256;22;20244;-88
2022/01/04 02:13:35;;;;;;;;;;;8.10;99.90;;;;;;6199117;22;19925;-89
2022/01/04 02:16:02;;;;;;;;;;;7.50;99.90;;;;;;6199634;22;19976;-88
2022/01/04 02:18:30;;;;;;;;;;;7.00;99.90;;;;;;6199092;22;19938;-89
2022/01/04 02:20:56;;;;;;;;;;;7.50;99.90;;;;;;6224656;22;20244;-89
2022/01/04 02:23:21;;;;;;;;;;;7.90;99.90;;;;;;6199151;22;19915;-88
2022/01/04 02:25:47;;;;;;;;;;;7.80;99.90;;;;;;6224306;22;19915;-88
2022/01/04 02:28:17;;;;;;;;;;;7.80;99.90;;;;;;6198943;22;19915;-88
2022/01/04 02:30:43;;;;;;;;;;;8.20;99.90;;;;;;6199986;22;19954;-89
2022/01/04 02:33:09;;;;;;;;;;;7.20;99.90;;;;;;6224002;22;19924;-88
2022/01/04 02:35:37;;;;;;;;;;;8.10;99.90;;;;;;6223783;22;19955;-88
2022/01/04 02:38:03;;;;;;;;;;;7.80;99.90;;;;;;6224398;22;20357;-89
2022/01/04 02:40:29;;;;;;;;;;;7.90;99.90;;;;;;6200320;22;19919;-88
2022/01/04 02:42:55;;;;;;;;;;;7.90;99.90;;;;;;6224338;22;19916;-88
2022/01/04 02:45:23;;;;;;;;;;;7.60;99.90;;;;;;6224624;22;19915;-88
2022/01/04 02:47:48;;;;;;;;;;;8.40;99.90;;;;;;6224956;22;19919;-88
2022/01/04 02:50:14;;;;;;;;;;;7.70;99.90;;;;;;6199318;22;20385;-89
2022/01/04 02:52:39;;;;;;;;;;;7.50;99.90;;;;;;6198811;22;19926;-87
2022/01/04 02:55:06;;;;;;;;;;;8.30;99.90;;;;;;6224062;22;20388;-88
2022/01/04 02:57:31;;;;;;;;;;;7.80;99.90;;;;;;6199187;22;19922;-89
2022/01/04 02:59:57;;;;;;;;;;;8.00;99.90;;;;;;6199181;22;19916;-89
2022/01/04 03:02:25;;;;;;;;;;;7.70;99.90;;;;;;6224341;22;19919;-89
2022/01/04 03:04:51;;;;;;;;;;;8.00;99.90;;;;;;6199845;22;19961;-88
2022/01/04 03:07:17;;;;;;;;;;;7.70;99.90;;;;;;6224078;22;19916;-88
2022/01/04 03:09:43;;;;;;;;;;;8.10;99.90;;;;;;6198959;22;19930;-88
2022/01/04 03:12:08;;;;;;;;;;;7.40;99.90;;;;;;6200094;22;19962;-88
2022/01/04 03:14:37;;;;;;;;;;;7.70;99.90;;;;;;6226027;22;20251;-88
2022/01/04 03:17:05;;;;;;;;;;;7.60;99.90;;;;;;6201008;22;19915;-88
2022/01/04 03:19:30;;;;;;;;;;;7.70;99.90;;;;;;6201155;22;19947;-89
2022/01/04 03:21:56;;;;;;;;;;;8.00;99.90;;;;;;6200152;22;20362;-88
2022/01/04 03:24:21;;;;;;;;;;;7.60;99.90;;;;;;6225808;22;19990;-89
2022/01/04 03:26:47;;;;;;;;;;;7.10;99.90;;;;;;6200683;22;20289;-89
2022/01/04 03:29:13;;;;;;;;;;;7.60;99.90;;;;;;6200909;22;19922;-88
2022/01/04 03:31:38;;;;;;;;;;;8.40;99.90;;;;;;6225678;22;19919;-88
2022/01/04 03:34:07;;;;;;;;;;;7.70;99.90;;;;;;6201597;22;20294;-88
2022/01/04 03:36:39;;;;;;;;;;;6.80;99.90;;;;;;6200599;22;19919;-88
2022/01/04 03:39:06;;;;;;;;;;;7.60;99.90;;;;;;6227412;22;19915;-89
2022/01/04 03:41:32;;;;;;;;;;;8.50;99.90;;;;;;6225522;22;19982;-88
2022/01/04 03:43:57;;;;;;;;;;;7.50;99.90;;;;;;6200555;22;19920;-88
2022/01/04 03:46:23;;;;;;;;;;;7.50;99.90;;;;;;6200770;22;19986;-88
2022/01/04 03:48:51;;;;;;;;;;;8.20;99.90;;;;;;6200436;22;19961;-88
2022/01/04 03:51:17;;;;;;;;;;;8.10;99.90;;;;;;6225851;22;19915;-88
2022/01/04 03:53:42;;;;;;;;;;;7.50;99.90;;;;;;6250822;22;19916;-87
2022/01/04 03:56:08;;;;;;;;;;;7.20;99.90;;;;;;6225527;22;19930;-89
2022/01/04 03:58:34;;;;;;;;;;;8.00;99.90;;;;;;6200235;22;19921;-89
2022/01/04 04:01:00;;;;;;;;;;;7.60;99.90;;;;;;6250914;22;19916;-89
2022/01/04 04:03:26;;;;;;;;;;;8.10;99.90;;;;;;6200480;22;19997;-89
2022/01/04 04:05:51;;;;;;;;;;;7.70;99.90;;;;;;6200382;22;19915;-88
2022/01/04 04:08:17;;;;;;;;;;;8.20;99.90;;;;;;6225332;22;20005;-89
2022/01/04 04:10:43;;;;;;;;;;;8.50;99.90;;;;;;6225302;22;19969;-88
2022/01/04 04:13:08;;;;;;;;;;;7.70;99.90;;;;;;6225214;22;19969;-89
2022/01/04 04:15:41;;;;;;;;;;;7.70;99.90;;;;;;6200577;22;19919;-89
2022/01/04 04:18:11;;;;;;;;;;;7.50;99.90;;;;;;6226864;22;19994;-88
2022/01/04 04:20:37;;;;;;;;;;;7.80;99.90;;;;;;6225868;22;19957;-88
2022/01/04 04:23:03;;;;;;;;;;;8.60;99.90;;;;;;6225360;22;20286;-89
2022/01/04 04:25:28;;;;;;;;;;;8.10;99.90;;;;;;6225284;22;19919;-88
2022/01/04 04:27:54;;;;;;;;;;;8.40;99.90;;;;;;6225201;22;20354;-89
2022/01/04 04:30:19;;;;;;;;;;;7.90;99.90;;;;;;6225036;22;20251;-89
2022/01/04 04:32:45;;;;;;;;;;;8.40;99.90;;;;;;6224924;22;19922;-88
2022/01/04 04:35:13;;;;;;;;;;;8.50;99.90;;;;;;6199782;22;20316;-88
2022/01/04 04:37:38;;;;;;;;;;;7.70;99.90;;;;;;6200368;22;19919;-89
2022/01/04 04:40:04;;;;;;;;;;;7.70;99.90;;;;;;6199988;22;19915;-88
2022/01/04 04:42:30;;;;;;;;;;;7.70;99.90;;;;;;6224800;22;19915;-88
2022/01/04 04:44:55;;;;;;;;;;;8.60;99.90;;;;;;6199904;22;19994;-89
2022/01/04 04:47:21;;;;;;;;;;;7.60;99.90;;;;;;6224964;22;19986;-88
2022/01/04 04:49:46;;;;;;;;;;;7.70;99.90;;;;;;6200073;22;19916;-88
2022/01/04 04:52:12;;;;;;;;;;;8.10;99.90;;;;;;6224776;22;20256;-88
2022/01/04 04:54:37;;;;;;;;;;;8.60;99.90;;;;;;6199853;22;20008;-88
2022/01/04 04:57:03;;;;;;;;;;;7.70;99.90;;;;;;6224849;22;19997;-88
2022/01/04 04:59:29;;;;;;;;;;;7.70;99.90;;;;;;6200154;22;19919;-88
2022/01/04 05:01:54;;;;;;;;;;;8.40;99.90;;;;;;6224665;22;19916;-88
2022/01/04 05:04:20;;;;;;;;;;;7.70;99.90;;;;;;6200382;22;19923;-88
2022/01/04 05:06:46;;;;;;;;;;;7.60;99.90;;;;;;6224792;22;19919;-88
2022/01/04 05:09:12;;;;;;;;;;;7.60;99.90;;;;;;6224721;22;19919;-87
2022/01/04 05:11:37;;;;;;;;;;;7.50;99.90;;;;;;6199578;22;20233;-88
2022/01/04 05:14:03;;;;;;;;;;;7.70;99.90;;;;;;6224668;22;19973;-89
2022/01/04 05:16:28;;;;;;;;;;;7.60;99.90;;;;;;6224688;22;19919;-88
2022/01/04 05:18:54;;;;;;;;;;;7.50;99.90;;;;;;6225592;22;19998;-88
2022/01/04 05:21:20;;;;;;;;;;;7.50;99.90;;;;;;6250170;22;19915;-89
2022/01/04 05:23:45;;;;;;;;;;;7.60;99.90;;;;;;6224735;22;19915;-88
2022/01/04 05:26:11;;;;;;;;;;;7.50;99.90;;;;;;6199531;22;19916;-89
2022/01/04 05:28:38;;;;;;;;;;;8.60;99.90;;;;;;6199327;22;20221;-87
2022/01/04 05:31:06;;;;;;;;;;;7.90;99.90;;;;;;6225401;22;20348;-88
2022/01/04 05:33:34;;;;;;;;;;;7.80;99.90;;;;;;6224676;22;20030;-89
2022/01/04 05:36:00;;;;;;;;;;;8.00;99.90;;;;;;6199886;22;19919;-87
2022/01/04 05:38:25;;;;;;;;;;;7.70;99.90;;;;;;6224555;22;19953;-88
2022/01/04 05:40:51;;;;;;;;;;;7.50;99.90;;;;;;6199578;22;19915;-87
2022/01/04 05:43:16;;;;;;;;;;;7.60;99.90;;;;;;6224863;22;19915;-88
2022/01/04 05:45:42;;;;;;;;;;;7.60;99.90;;;;;;6224506;22;19930;-88
2022/01/04 05:48:08;;;;;;;;;;;7.90;99.90;;;;;;6224469;22;19922;-88
2022/01/04 05:50:34;;;;;;;;;;;7.80;99.90;;;;;;6249640;22;19923;-89
2022/01/04 05:53:00;;;;;;;;;;;7.60;99.90;;;;;;6224692;22;19919;-88
2022/01/04 05:55:25;;;;;;;;;;;7.50;99.90;;;;;;6249580;22;19916;-88
2022/01/04 05:57:51;;;;;;;;;;;7.50;99.90;;;;;;6224262;22;19919;-88
2022/01/04 06:00:17;;;;;;;;;;;7.50;99.90;;;;;;6199376;22;19951;-88
2022/01/04 06:02:42;;;;;;;;;;;7.60;99.90;;;;;;6224679;22;19915;-89
2022/01/04 06:05:09;;;;;;;;;;;8.10;99.90;;;;;;6224348;22;20320;-89
2022/01/04 06:07:35;;;;;;;;;;;7.60;99.90;;;;;;6249673;22;19916;-89
2022/01/04 06:10:03;;;;;;;;;;;7.60;99.90;;;;;;6199105;22;19922;-89
2022/01/04 06:14:58;;;;;;;;;;;7.20;99.90;;;;;;6224792;22;19915;-88
2022/01/04 06:17:28;;;;;;;;;;;7.60;99.90;;;;;;6224257;22;20244;-88
2022/01/04 06:19:58;;;;;;;;;;;7.80;99.90;;;;;;6198474;22;19976;-88
2022/01/04 06:22:27;;;;;;;;;;;8.50;99.90;;;;;;6248367;22;19917;-88
2022/01/04 06:24:52;;;;;;;;;;;7.50;99.90;;;;;;6223124;22;20416;-89
2022/01/04 06:27:18;;;;;;;;;;;8.10;99.90;;;;;;6198059;22;20255;-88
2022/01/04 06:29:44;;;;;;;;;;;7.60;99.90;;;;;;6223136;22;19915;-90
2022/01/04 06:32:09;;;;;;;;;;;7.30;99.90;;;;;;6198289;22;19922;-89
2022/01/04 06:34:35;;;;;;;;;;;8.10;99.90;;;;;;6198115;22;19919;-89
2022/01/04 06:37:01;;;;;;;;;;;7.80;99.90;;;;;;6198026;22;19916;-89
2022/01/04 06:39:26;;;;;;;;;;;7.60;99.90;;;;;;6222896;22;19915;-88
2022/01/04 06:41:52;;;;;;;;;;;8.20;99.90;;;;;;6197703;22;19915;-89
2022/01/04 06:44:22;;;;;;;;;;;8.50;99.90;;;;;;6197860;22;19916;-89
2022/01/04 06:46:47;;;;;;;;;;;8.10;99.90;;;;;;6225452;22;20243;-88
2022/01/04 06:49:13;;;;;;;;;;;7.50;99.90;;;;;;6200014;22;19922;-88
2022/01/04 06:51:39;;;;;;;;;;;7.50;99.90;;;;;;6250190;22;19939;-89
2022/01/04 06:54:06;;;;;;;;;;;7.40;99.90;;;;;;6200160;22;19920;-89
2022/01/04 06:56:31;;;;;;;;;;;7.70;99.90;;;;;;6200102;22;19969;-89
2022/01/04 06:58:59;;;;;;;;;;;7.90;99.90;;;;;;6275749;22;19919;-91
2022/01/04 07:04:38;;;;;;;;;;;7.70;99.90;;;;;;6238618;22;19956;-94
2022/01/04 07:07:24;;;;;;;;;;;;;;;;;;;;;
2022/01/04 07:10:05;;;;;;;;;;;;;;;;;;;;;
2022/01/04 07:12:51;;;;;;;;;;;8.10;99.90;;;;;;6227685;22;19965;-92
2022/01/04 07:15:45;;;;;;;;;;;8.30;99.90;;;;;;6253338;22;19915;-91
2022/01/04 07:21:21;;;;;;;;;;;7.10;99.90;;;;;;6229181;22;19916;-92
2022/01/04 07:24:16;;;;;;;;;;;;;;;;;;;;;
2022/01/04 07:27:20;;;;;;;;;;;8.20;99.90;;;;;;6249820;22;19926;-93
2022/01/04 07:29:48;;;;;;;;;;;7.30;99.90;;;;;;6225900;22;19903;-92
2022/01/04 07:32:36;;;;;;;;;;;8.20;99.90;;;;;;6200305;22;19919;-91
2022/01/04 07:35:15;;;;;;;;;;;;;;;;;;;;;
2022/01/04 07:37:56;;;;;;;;;;;;;;;;;;;;;
2022/01/04 07:40:37;;;;;;;;;;;7.60;99.90;;;;;;6226923;22;19922;-91
2022/01/04 07:43:15;;;;;;;;;;;;;;;;;;;;;
2022/01/04 07:45:56;;;;;;;;;;;;;;;;;;;;;
2022/01/04 07:48:29;;;;;;;;;;;8.30;99.90;;;;;;6226636;22;20335;-91
2022/01/04 07:51:05;;;;;;;;;;;6.80;99.90;;;;;;6224164;22;19919;-91
2022/01/04 07:56:18;;;;;;;;;;;7.30;99.90;;;;;;6212544;22;19916;-90
2022/01/04 07:58:46;;;;;;;;;;;7.60;99.90;;;;;;6223090;22;19919;-91
2022/01/04 08:01:32;;;;;;;;;;;7.20;99.90;;;;;;6199455;22;20366;-91
2022/01/04 08:04:08;;;;;;;;;;;;;;;;;;;;;
2022/01/04 08:06:53;;;;;;;;;;;7.80;99.90;;;;;;6226269;22;19992;-91
2022/01/04 08:09:24;;;;;;;;;;;7.10;99.90;;;;;;6222784;22;19926;-90
2022/01/04 08:12:09;;;;;;;;;;;;;;;;;;;;;
2022/01/04 08:14:37;;;;;;;;;;;8.10;99.90;;;;;;6225567;22;19920;-90
2022/01/04 08:17:06;;;;;;;;;;;8.00;99.90;;;;;;6224126;22;20162;-90
2022/01/04 08:22:21;;;;;;;;;;;7.90;99.90;;;;;;6202265;22;19916;-90
2022/01/04 08:24:54;;;;;;;;;;;7.70;99.90;;;;;;6199520;22;19937;-90
2022/01/04 08:36:02;;;;;;;;;;;;;;;;;;;;;
2022/01/04 08:38:58;;;;;;;;;;;5.90;99.90;;;;;;6255635;22;19940;-91
2022/01/04 08:41:41;;;;;;;;;;;6.10;99.90;;;;;;6253876;22;20339;-92
2022/01/04 08:44:21;;;;;;;;;;;6.00;99.90;;;;;;6231171;22;19921;-93
2022/01/04 08:50:14;;;;;;;;;;;;;;;;;;;;;
2022/01/04 08:52:56;;;;;;;;;;;;;;;;;;;;;
2022/01/04 08:56:00;;;;;;;;;;;;;;;;;;;;;
2022/01/04 09:04:45;;;;;;;;;;;6.50;99.90;;;;;;6157297;23;20360;-90
2022/01/04 09:07:21;;;;;;;;;;;7.50;99.90;;;;;;6208897;22;19986;-91
2022/01/04 09:10:00;;;;;;;;;;;;;;;;;;;;;
2022/01/04 09:12:33;;;;;;;;;;;6.40;99.90;;;;;;6255985;22;19937;-91
2022/01/04 09:15:06;;;;;;;;;;;7.80;99.90;;;;;;6230436;22;19938;-91
2022/01/04 09:20:26;;;;;;;;;;;7.10;99.90;;;;;;6278997;22;19994;-92
2022/01/04 09:23:01;;;;;;;;;;;;;;;;;;;;;
2022/01/04 09:25:32;;;;;;;;;;;7.00;99.90;;;;;;6256018;22;19961;-90
2022/01/04 09:27:58;;;;;;;;;;;6.80;99.90;;;;;;6228684;22;19926;-90
2022/01/04 09:30:51;;;;;;;;;;;7.30;99.90;;;;;;6228360;22;20326;-91
2022/01/04 09:33:19;;;;;;;;;;;6.70;99.90;;;;;;6253903;22;19919;-90
2022/01/04 09:35:44;;;;;;;;;;;7.30;99.90;;;;;;6228747;22;20312;-90
2022/01/04 09:38:20;;;;;;;;;;;7.40;99.90;;;;;;6228024;22;19946;-90
2022/01/04 09:40:48;;;;;;;;;;;6.80;99.90;;;;;;6255599;22;19994;-90
2022/01/04 09:43:36;;;;;;;;;;;7.00;99.90;;;;;;6228248;22;19926;-91
2022/01/04 09:46:04;;;;;;;;;;;6.60;99.90;;;;;;6260208;22;19922;-91
2022/01/04 09:48:32;;;;;;;;;;;7.10;99.90;;;;;;6229258;22;19922;-90
2022/01/04 09:51:00;;;;;;;;;;;7.60;99.90;;;;;;6228718;22;20323;-91
2022/01/04 09:53:36;;;;;;;;;;;;;;;;;;;;;
2022/01/04 09:56:07;;;;;;;;;;;7.30;99.90;;;;;;6255867;22;19915;-91
2022/01/04 09:58:35;;;;;;;;;;;6.30;99.90;;;;;;6229737;22;19968;-91
2022/01/04 10:01:04;;;;;;;;;;;6.40;99.90;;;;;;6250327;22;19914;-89
2022/01/04 10:03:43;;;;;;;;;;;;;;;;;;;;;
2022/01/04 10:06:19;;;;;;;;;;;7.30;99.90;;;;;;6256036;22;19968;-91
2022/01/04 10:08:59;;;;;;;;;;;6.50;99.90;;;;;;6228711;22;19919;-91
2022/01/04 10:11:48;;;;;;;;;;;;;;;;;;;;;
2022/01/04 10:14:26;;;;;;;;;;;6.60;99.90;;;;;;6255506;22;19919;-90
2022/01/04 10:16:54;;;;;;;;;;;7.40;99.90;;;;;;6228294;22;19915;-90
2022/01/04 10:19:28;;;;;;;;;;;6.70;99.90;;;;;;6227916;22;19914;-92
2022/01/04 10:22:12;;;;;;;;;;;6.40;99.90;;;;;;6223051;22;20354;-91
2022/01/04 10:24:45;;;;;;;;;;;6.40;99.90;;;;;;6228377;22;19921;-91
2022/01/04 10:27:29;;;;;;;;;;;6.40;99.90;;;;;;6229224;22;19957;-91
2022/01/04 10:30:17;;;;;;;;;;;;;;;;;;;;;
2022/01/04 10:32:51;;;;;;;;;;;6.40;99.90;;;;;;6278655;22;19923;-90
2022/01/04 10:35:38;;;;;;;;;;;7.30;99.90;;;;;;6253414;22;19958;-90
2022/01/04 10:38:12;;;;;;;;;;;6.40;99.90;;;;;;6249049;22;19989;-90
2022/01/04 10:40:41;;;;;;;;;;;6.30;99.90;;;;;;6278830;22;19965;-91
2022/01/04 10:43:13;;;;;;;;;;;6.30;99.90;;;;;;6253827;22;19960;-91
2022/01/04 10:45:39;;;;;;;;;;;6.70;99.90;;;;;;6228859;22;19989;-90
2022/01/04 10:48:41;;;;;;;;;;;;;;;;;;;;;
2022/01/04 10:51:11;;;;;;;;;;;6.20;99.90;;;;;;6278332;22;19915;-90
2022/01/04 10:53:43;;;;;;;;;;;6.10;99.90;;;;;;6252655;22;19914;-91
2022/01/04 10:56:15;;;;;;;;;;;6.00;99.90;;;;;;6253205;22;19919;-91
2022/01/04 10:58:51;;;;;;;;;;;;;;;;;;;;;
2022/01/04 11:01:27;;;;;;;;;;;6.60;99.90;;;;;;6255159;22;19915;-91
2022/01/04 11:04:13;;;;;;;;;;;6.20;99.90;;;;;;6252582;22;20246;-91
2022/01/04 11:06:48;;;;;;;;;;;5.80;99.90;;;;;;6227894;22;19921;-91
2022/01/04 11:09:32;;;;;;;;;;;6.30;99.90;;;;;;6253110;22;19923;-91
2022/01/04 11:12:06;;;;;;;;;;;6.30;99.90;;;;;;6228126;22;19915;-90
2022/01/04 11:14:37;;;;;;;;;;;6.10;99.90;;;;;;6254968;22;19921;-91
2022/01/04 11:17:03;;;;;;;;;;;6.10;99.90;;;;;;6228630;22;19919;-88
2022/01/04 11:19:32;;;;;;;;;;;6.00;99.90;;;;;;6253995;22;20318;-91
2022/01/04 11:22:08;;;;;;;;;;;5.80;99.90;;;;;;6254467;22;19921;-91
2022/01/04 11:24:46;;;;;;;;;;;;;;;;;;;;;
2022/01/04 11:27:12;;;;;;;;;;;5.90;99.90;;;;;;6255277;22;20055;-91
2022/01/04 11:29:40;;;;;;;;;;;6.60;99.90;;;;;;6227604;22;19961;-91
2022/01/04 11:32:15;;;;;;;;;;;;;;;;;;;;;
2022/01/04 11:35:07;;;;;;;;;;;5.90;99.90;;;;;;6257254;22;19923;-91
2022/01/04 11:37:35;;;;;;;;;;;5.80;99.90;;;;;;6254868;22;19915;-90
2022/01/04 11:40:20;;;;;;;;;;;6.50;99.90;;;;;;6229791;22;20009;-90
2022/01/04 11:42:53;;;;;;;;;;;5.70;99.90;;;;;;6254917;22;19965;-91
2022/01/04 11:45:37;;;;;;;;;;;5.60;99.90;;;;;;6255203;22;19915;-91
2022/01/04 11:48:30;;;;;;;;;;;5.60;99.90;;;;;;6254959;22;19950;-91
2022/01/04 11:50:58;;;;;;;;;;;5.60;99.90;;;;;;6182348;22;19918;-92
2022/01/04 11:53:34;;;;;;;;;;;6.00;99.90;;;;;;6227490;22;19966;-91
2022/01/04 11:56:02;;;;;;;;;;;5.70;99.90;;;;;;6229796;22;20432;-92
2022/01/04 11:58:44;;;;;;;;;;;6.00;99.90;;;;;;6230003;22;19922;-91
2022/01/04 12:01:25;;;;;;;;;;;5.40;99.90;;;;;;6254407;22;19915;-90
2022/01/04 12:09:53;;;;;;;;;;;;;;;;;;;;;
2022/01/04 12:12:41;;;;;;;;;;;5.60;99.90;;;;;;6256689;22;20291;-90
2022/01/04 12:15:26;;;;;;;;;;;4.90;99.90;;;;;;6253512;22;19967;-91
2022/01/04 12:17:54;;;;;;;;;;;5.00;99.90;;;;;;6279479;22;20232;-91
2022/01/04 12:20:39;;;;;;;;;;;5.00;99.90;;;;;;6229199;22;19938;-90
2022/01/04 12:23:25;;;;;;;;;;;5.10;99.90;;;;;;6254226;22;19964;-91
2022/01/04 12:26:08;;;;;;;;;;;5.10;99.90;;;;;;6279660;22;19918;-91
2022/01/04 12:28:40;;;;;;;;;;;5.20;99.90;;;;;;6254201;22;19972;-90
2022/01/04 12:31:19;;;;;;;;;;;5.30;99.90;;;;;;6253907;22;19949;-91
2022/01/04 12:34:10;;;;;;;;;;;5.30;99.90;;;;;;6254146;22;19927;-90
2022/01/04 12:36:38;;;;;;;;;;;5.40;99.90;;;;;;6239976;22;19915;-90
2022/01/04 12:39:26;;;;;;;;;;;6.00;99.90;;;;;;6253752;22;20307;-89
2022/01/04 12:42:20;;;;;;;;;;;5.40;99.90;;;;;;6257773;22;19950;-91
2022/01/04 12:44:49;;;;;;;;;;;6.30;99.90;;;;;;6256312;22;19915;-89
2022/01/04 12:47:33;;;;;;;;;;;5.50;99.90;;;;;;6254189;22;20408;-92
2022/01/04 12:50:16;;;;;;;;;;;5.50;99.90;;;;;;6257514;22;19965;-92
2022/01/04 12:52:54;;;;;;;;;;;6.10;99.90;;;;;;6230375;22;19989;-91
2022/01/04 12:58:36;;;;;;;;;;;5.40;99.90;;;;;;6264516;22;19915;-90
2022/01/04 13:13:34;;;;;;;;;;;5.10;99.90;;;;;;6267563;22;19918;-89
2022/01/04 13:16:31;;;;;;;;;;;;;;;;;;;;;
2022/01/04 13:19:24;;;;;;;;;;;5.10;99.90;;;;;;6279161;22;19914;-89
2022/01/04 13:22:07;;;;;;;;;;;6.30;99.90;;;;;;6253876;22;19919;-90
2022/01/04 13:25:06;;;;;;;;;;;5.10;99.90;;;;;;6256127;22;19993;-90
2022/01/04 13:27:41;;;;;;;;;;;;;;;;;;;;;
2022/01/04 13:46:22;;;;;;;;;;;5.90;99.90;;;;;;6258253;22;19937;-91
2022/01/04 13:49:00;;;;;;;;;;;5.80;99.90;;;;;;6230896;22;19919;-90
2022/01/04 13:51:36;;;;;;;;;;;5.60;99.90;;;;;;6254894;22;20033;-89
2022/01/04 13:54:18;;;;;;;;;;;5.00;99.90;;;;;;6252935;22;19919;-89
2022/01/04 13:56:49;;;;;;;;;;;4.80;99.90;;;;;;6254259;22;19918;-90
2022/01/04 13:59:21;;;;;;;;;;;4.50;99.90;;;;;;6254051;22;19991;-89
2022/01/04 14:01:57;;;;;;;;;;;;;;;;;;;;;
2022/01/04 14:04:24;;;;;;;;;;;5.30;99.90;;;;;;6255756;22;20229;-90
2022/01/04 14:06:52;;;;;;;;;;;5.90;99.90;;;;;;6253630;22;19921;-90
2022/01/04 14:09:29;;;;;;;;;;;5.30;99.90;;;;;;6253475;22;19915;-90
2022/01/04 14:12:02;;;;;;;;;;;4.50;99.90;;;;;;6255545;22;19947;-90
2022/01/04 14:14:28;;;;;;;;;;;5.10;99.90;;;;;;6253423;22;20221;-90
2022/01/04 14:16:59;;;;;;;;;;;6.00;99.90;;;;;;6228068;22;19915;-90
2022/01/04 14:19:30;;;;;;;;;;;4.80;99.90;;;;;;6253459;22;19918;-91
2022/01/04 14:22:05;;;;;;;;;;;4.80;99.90;;;;;;6228321;22;20021;-89
2022/01/04 14:24:40;;;;;;;;;;;4.80;99.90;;;;;;6228323;22;19922;-90
2022/01/04 14:27:10;;;;;;;;;;;4.90;99.90;;;;;;6228172;22;19945;-90
2022/01/04 14:29:39;;;;;;;;;;;4.90;99.90;;;;;;6252937;22;19915;-90
2022/01/04 14:32:12;;;;;;;;;;;5.20;99.90;;;;;;6253601;22;20318;-90
2022/01/04 14:34:40;;;;;;;;;;;4.70;99.90;;;;;;6278160;22;20044;-90
2022/01/04 14:37:08;;;;;;;;;;;4.80;99.90;;;;;;6227976;22;19922;-90
2022/01/04 14:39:38;;;;;;;;;;;4.30;99.90;;;;;;6228817;22;21244;-90
2022/01/04 14:42:06;;;;;;;;;;;4.40;99.90;;;;;;6227557;22;20320;-89
2022/01/04 14:44:32;;;;;;;;;;;4.10;99.90;;;;;;6227602;22;19922;-89
2022/01/04 14:47:05;;;;;;;;;;;3.70;99.90;;;;;;6229362;22;19915;-89
2022/01/04 14:49:42;;;;;;;;;;;4.00;99.90;;;;;;6228481;22;20388;-90
2022/01/04 14:52:10;;;;;;;;;;;3.70;99.90;;;;;;6229937;22;19915;-91
2022/01/04 14:54:39;;;;;;;;;;;4.30;99.90;;;;;;6227506;22;20005;-89
2022/01/04 14:57:04;;;;;;;;;;;3.40;99.90;;;;;;6228257;22;19919;-90
2022/01/04 14:59:30;;;;;;;;;;;4.20;99.90;;;;;;6227644;22;20315;-90
2022/01/04 15:01:55;;;;;;;;;;;3.20;99.90;;;;;;6278781;22;19937;-90
2022/01/04 15:04:21;;;;;;;;;;;3.20;99.90;;;;;;6227681;22;19919;-91
2022/01/04 15:06:49;;;;;;;;;;;4.00;99.90;;;;;;6279393;22;20208;-91
2022/01/04 15:09:14;;;;;;;;;;;2.20;99.90;;;;;;6255457;22;20261;-90
2022/01/04 15:11:43;;;;;;;;;;;4.10;99.90;;;;;;6229751;22;19915;-91
2022/01/04 15:14:11;;;;;;;;;;;3.60;99.90;;;;;;6230289;22;19964;-89
2022/01/04 15:16:38;;;;;;;;;;;3.60;99.90;;;;;;6255912;22;19915;-90
2022/01/04 15:19:06;;;;;;;;;;;3.60;99.90;;;;;;6230121;22;19918;-90
2022/01/04 15:21:32;;;;;;;;;;;4.10;99.90;;;;;;6230239;22;19922;-90
2022/01/04 15:24:00;;;;;;;;;;;3.50;99.90;;;;;;6229210;22;19914;-90
2022/01/04 15:26:28;;;;;;;;;;;3.10;99.90;;;;;;6256641;22;19914;-90
2022/01/04 15:28:54;;;;;;;;;;;3.40;99.90;;;;;;6280602;22;19926;-90
2022/01/04 15:31:22;;;;;;;;;;;2.30;99.90;;;;;;6229294;22;19973;-90
2022/01/04 15:33:55;;;;;;;;;;;5.30;99.90;;;;;;6255102;22;19969;-90
2022/01/04 15:36:29;;;;;;;;;;;1.40;99.90;;;;;;6231184;22;19968;-90
2022/01/04 15:38:58;;;;;;;;;;;2.90;99.90;;;;;;6231506;22;20195;-89
2022/01/04 15:41:27;;;;;;;;;;;2.50;99.90;;;;;;6229955;22;20327;-90
2022/01/04 15:43:52;;;;;;;;;;;2.30;99.90;;;;;;6254737;22;19915;-91
2022/01/04 15:46:23;;;;;;;;;;;2.60;99.90;;;;;;6229848;22;20292;-90
2022/01/04 15:48:49;;;;;;;;;;;3.40;99.90;;;;;;6230266;22;19989;-91
2022/01/04 15:51:17;;;;;;;;;;;2.00;99.90;;;;;;6255107;22;19953;-89
2022/01/04 15:53:48;;;;;;;;;;;3.50;99.90;;;;;;6255231;22;19965;-90
2022/01/04 15:56:25;;;;;;;;;;;2.10;99.90;;;;;;6255354;22;20224;-90
2022/01/04 15:58:53;;;;;;;;;;;2.00;99.90;;;;;;6257134;22;19915;-90
2022/01/04 16:01:21;;;;;;;;;;;2.20;99.90;;;;;;6229861;22;19930;-90
2022/01/04 16:03:49;;;;;;;;;;;2.10;99.90;;;;;;6229895;22;20220;-89
2022/01/04 16:06:15;;;;;;;;;;;1.80;99.90;;;;;;6229875;22;20303;-90
2022/01/04 16:08:48;;;;;;;;;;;2.40;99.90;;;;;;6229672;22;19923;-91
2022/01/04 16:11:14;;;;;;;;;;;2.10;99.90;;;;;;6254602;22;19915;-89
2022/01/04 16:13:45;;;;;;;;;;;1.70;99.90;;;;;;6228874;22;19919;-89
2022/01/04 16:16:37;;;;;;;;;;;2.10;99.90;;;;;;6254504;22;19914;-89
2022/01/04 16:21:43;;;;;;;;;;;2.30;99.90;;;;;;6257898;22;19915;-90
2022/01/04 16:24:18;;;;;;;;;;;2.40;99.90;;;;;;6229148;22;19942;-90
2022/01/04 16:26:45;;;;;;;;;;;2.20;99.90;;;;;;6255825;22;20384;-90
2022/01/04 16:29:12;;;;;;;;;;;3.20;99.90;;;;;;6229010;22;20224;-89
2022/01/04 16:31:41;;;;;;;;;;;2.90;99.90;;;;;;6228433;22;19919;-90
2022/01/04 16:34:06;;;;;;;;;;;3.40;99.90;;;;;;6255094;22;19926;-89